sensor_id;sensor_type;location;lat;lon;timestamp;pressure;altitude;pressure_sealevel;temperature;humidity
6464;BME280;3265;42.694;23.282;2023-04-26T00:00:02;93696.19;;;10.59;100.00
6464;BME280;3265;42.694;23.282;2023-04-26T00:02:33;93693.50;;;10.54;100.00
6464;BME280;3265;42.694;23.282;2023-04-26T00:05:00;93689.38;;;10.53;100.00
6464;BME280;3265;42.694;23.282;2023-04-26T00:07:28;93694.31;;;10.54;100.00
6464;BME280;3265;42.694;23.282;2023-04-26T00:09:55;93671.56;;;10.45;100.00
6464;BME280;3265;42.694;23.282;2023-04-26T00:12:23;93680.03;;;10.57;100.00
6464;BME280;3265;42.694;23.282;2023-04-26T00:14:50;93680.47;;;10.49;100.00
6464;BME280;3265;42.694;23.282;2023-04-26T00:17:17;93676.00;;;10.44;100.00
6464;BME280;3265;42.694;23.282;2023-04-26T00:19:44;93667.66;;;10.42;100.00
6464;BME280;3265;42.694;23.282;2023-04-26T00:22:11;93660.91;;;10.41;100.00
6464;BME280;3265;42.694;23.282;2023-04-26T00:24:38;93664.56;;;10.45;100.00
6464;BME280;3265;42.694;23.282;2023-04-26T00:27:04;93669.75;;;10.45;100.00
6464;BME280;3265;42.694;23.282;2023-04-26T00:29:36;93668.44;;;10.43;100.00
6464;BME280;3265;42.694;23.282;2023-04-26T00:32:03;93650.00;;;10.22;100.00
6464;BME280;3265;42.694;23.282;2023-04-26T00:34:34;93647.09;;;10.19;100.00
6464;BME280;3265;42.694;23.282;2023-04-26T00:37:01;93648.19;;;10.23;100.00
6464;BME280;3265;42.694;23.282;2023-04-26T00:39:29;93649.94;;;10.17;100.00
6464;BME280;3265;42.694;23.282;2023-04-26T00:41:56;93642.28;;;10.11;100.00
6464;BME280;3265;42.694;23.282;2023-04-26T00:44:23;93655.06;;;10.12;100.00
6464;BME280;3265;42.694;23.282;2023-04-26T00:46:52;93654.25;;;10.12;100.00
6464;BME280;3265;42.694;23.282;2023-04-26T00:49:23;93661.81;;;10.13;100.00
6464;BME280;3265;42.694;23.282;2023-04-26T00:51:50;93658.59;;;10.06;100.00
6464;BME280;3265;42.694;23.282;2023-04-26T00:54:19;93657.81;;;10.06;100.00
6464;BME280;3265;42.694;23.282;2023-04-26T00:56:46;93656.94;;;10.00;100.00
6464;BME280;3265;42.694;23.282;2023-04-26T00:59:16;93648.72;;;9.87;100.00
6464;BME280;3265;42.694;23.282;2023-04-26T01:01:43;93652.94;;;9.93;100.00
6464;BME280;3265;42.694;23.282;2023-04-26T01:04:12;93663.72;;;9.85;100.00
6464;BME280;3265;42.694;23.282;2023-04-26T01:06:39;93669.19;;;9.66;100.00
6464;BME280;3265;42.694;23.282;2023-04-26T01:09:07;93674.06;;;9.63;100.00
6464;BME280;3265;42.694;23.282;2023-04-26T01:11:36;93665.94;;;9.59;100.00
6464;BME280;3265;42.694;23.282;2023-04-26T01:14:03;93671.78;;;9.66;100.00
6464;BME280;3265;42.694;23.282;2023-04-26T01:16:33;93662.09;;;9.62;100.00
6464;BME280;3265;42.694;23.282;2023-04-26T01:19:06;93666.81;;;9.65;100.00
6464;BME280;3265;42.694;23.282;2023-04-26T01:21:36;93657.44;;;9.64;100.00
6464;BME280;3265;42.694;23.282;2023-04-26T01:24:06;93650.13;;;9.61;100.00
6464;BME280;3265;42.694;23.282;2023-04-26T01:26:34;93647.84;;;9.64;100.00
6464;BME280;3265;42.694;23.282;2023-04-26T01:29:12;93652.81;;;9.66;100.00
6464;BME280;3265;42.694;23.282;2023-04-26T01:31:39;93652.19;;;9.59;100.00
6464;BME280;3265;42.694;23.282;2023-04-26T01:34:06;93662.25;;;9.55;100.00
6464;BME280;3265;42.694;23.282;2023-04-26T01:36:32;93661.38;;;9.50;100.00
6464;BME280;3265;42.694;23.282;2023-04-26T01:38:59;93659.44;;;9.57;100.00
6464;BME280;3265;42.694;23.282;2023-04-26T01:41:27;93660.44;;;9.56;100.00
6464;BME280;3265;42.694;23.282;2023-04-26T01:43:55;93662.03;;;9.57;100.00
6464;BME280;3265;42.694;23.282;2023-04-26T01:46:22;93668.22;;;9.56;100.00
6464;BME280;3265;42.694;23.282;2023-04-26T01:48:49;93669.72;;;9.52;100.00
6464;BME280;3265;42.694;23.282;2023-04-26T01:51:15;93670.59;;;9.57;100.00
6464;BME280;3265;42.694;23.282;2023-04-26T01:53:42;93659.97;;;9.59;100.00
6464;BME280;3265;42.694;23.282;2023-04-26T01:56:09;93660.50;;;9.61;100.00
6464;BME280;3265;42.694;23.282;2023-04-26T01:58:37;93657.91;;;9.61;100.00
6464;BME280;3265;42.694;23.282;2023-04-26T02:01:05;93663.09;;;9.61;100.00
6464;BME280;3265;42.694;23.282;2023-04-26T02:03:32;93651.16;;;9.60;100.00
6464;BME280;3265;42.694;23.282;2023-04-26T02:05:59;93647.47;;;9.56;100.00
6464;BME280;3265;42.694;23.282;2023-04-26T02:08:29;93645.66;;;9.56;100.00
6464;BME280;3265;42.694;23.282;2023-04-26T02:10:56;93632.09;;;9.49;100.00
6464;BME280;3265;42.694;23.282;2023-04-26T02:13:23;93642.59;;;9.59;100.00
6464;BME280;3265;42.694;23.282;2023-04-26T02:15:51;93649.19;;;9.50;100.00
6464;BME280;3265;42.694;23.282;2023-04-26T02:18:18;93626.59;;;9.46;100.00
6464;BME280;3265;42.694;23.282;2023-04-26T02:20:47;93639.06;;;9.49;100.00
6464;BME280;3265;42.694;23.282;2023-04-26T02:23:14;93631.44;;;9.42;100.00
6464;BME280;3265;42.694;23.282;2023-04-26T02:25:41;93630.50;;;9.48;100.00
6464;BME280;3265;42.694;23.282;2023-04-26T02:28:10;93639.53;;;9.46;100.00
6464;BME280;3265;42.694;23.282;2023-04-26T02:30:37;93638.44;;;9.42;100.00
6464;BME280;3265;42.694;23.282;2023-04-26T02:33:05;93631.66;;;9.41;100.00
6464;BME280;3265;42.694;23.282;2023-04-26T02:35:33;93626.09;;;9.32;100.00
6464;BME280;3265;42.694;23.282;2023-04-26T02:38:00;93642.59;;;9.43;100.00
6464;BME280;3265;42.694;23.282;2023-04-26T02:40:27;93643.88;;;9.40;100.00
6464;BME280;3265;42.694;23.282;2023-04-26T02:42:54;93637.81;;;9.35;100.00
6464;BME280;3265;42.694;23.282;2023-04-26T02:45:22;93650.13;;;9.44;100.00
6464;BME280;3265;42.694;23.282;2023-04-26T02:47:48;93642.34;;;9.44;100.00
6464;BME280;3265;42.694;23.282;2023-04-26T02:50:17;93644.00;;;9.50;100.00
6464;BME280;3265;42.694;23.282;2023-04-26T02:52:43;93624.84;;;9.51;100.00
6464;BME280;3265;42.694;23.282;2023-04-26T02:55:11;93614.56;;;9.40;100.00
6464;BME280;3265;42.694;23.282;2023-04-26T02:57:38;93618.94;;;9.39;100.00
6464;BME280;3265;42.694;23.282;2023-04-26T03:00:06;93623.41;;;9.44;100.00
6464;BME280;3265;42.694;23.282;2023-04-26T03:02:33;93626.72;;;9.39;100.00
6464;BME280;3265;42.694;23.282;2023-04-26T03:05:00;93622.34;;;9.40;100.00
6464;BME280;3265;42.694;23.282;2023-04-26T03:07:29;93624.22;;;9.44;100.00
6464;BME280;3265;42.694;23.282;2023-04-26T03:09:57;93624.06;;;9.51;100.00
6464;BME280;3265;42.694;23.282;2023-04-26T03:12:25;93621.00;;;9.54;100.00
6464;BME280;3265;42.694;23.282;2023-04-26T03:14:53;93627.19;;;9.53;100.00
6464;BME280;3265;42.694;23.282;2023-04-26T03:17:19;93617.06;;;9.51;100.00
6464;BME280;3265;42.694;23.282;2023-04-26T03:19:46;93624.13;;;9.56;100.00
6464;BME280;3265;42.694;23.282;2023-04-26T03:22:13;93617.06;;;9.51;100.00
6464;BME280;3265;42.694;23.282;2023-04-26T03:24:42;93621.47;;;9.51;100.00
6464;BME280;3265;42.694;23.282;2023-04-26T03:27:10;93621.72;;;9.49;100.00
6464;BME280;3265;42.694;23.282;2023-04-26T03:29:37;93621.16;;;9.47;100.00
6464;BME280;3265;42.694;23.282;2023-04-26T03:32:04;93611.72;;;9.41;100.00
6464;BME280;3265;42.694;23.282;2023-04-26T03:34:31;93627.84;;;9.43;100.00
6464;BME280;3265;42.694;23.282;2023-04-26T03:36:58;93626.00;;;9.44;100.00
6464;BME280;3265;42.694;23.282;2023-04-26T03:39:25;93620.06;;;9.43;100.00
6464;BME280;3265;42.694;23.282;2023-04-26T03:41:53;93625.00;;;9.28;100.00
6464;BME280;3265;42.694;23.282;2023-04-26T03:44:20;93625.41;;;9.20;100.00
6464;BME280;3265;42.694;23.282;2023-04-26T03:46:47;93636.03;;;9.07;100.00
6464;BME280;3265;42.694;23.282;2023-04-26T03:49:13;93646.81;;;9.16;100.00
6464;BME280;3265;42.694;23.282;2023-04-26T03:51:40;93648.94;;;9.19;100.00
6464;BME280;3265;42.694;23.282;2023-04-26T03:54:07;93642.66;;;9.15;100.00
6464;BME280;3265;42.694;23.282;2023-04-26T03:56:34;93650.84;;;9.23;100.00
6464;BME280;3265;42.694;23.282;2023-04-26T03:59:02;93653.44;;;9.23;100.00
6464;BME280;3265;42.694;23.282;2023-04-26T04:01:29;93656.25;;;9.22;100.00
6464;BME280;3265;42.694;23.282;2023-04-26T04:03:57;93663.63;;;9.30;100.00
6464;BME280;3265;42.694;23.282;2023-04-26T04:06:25;93642.03;;;9.24;100.00
6464;BME280;3265;42.694;23.282;2023-04-26T04:08:52;93661.78;;;9.42;100.00
6464;BME280;3265;42.694;23.282;2023-04-26T04:11:22;93660.81;;;9.31;100.00
6464;BME280;3265;42.694;23.282;2023-04-26T04:13:49;93660.94;;;9.08;100.00
6464;BME280;3265;42.694;23.282;2023-04-26T04:16:17;93662.09;;;9.00;100.00
6464;BME280;3265;42.694;23.282;2023-04-26T04:18:44;93644.59;;;8.91;100.00
6464;BME280;3265;42.694;23.282;2023-04-26T04:21:13;93662.66;;;9.02;100.00
6464;BME280;3265;42.694;23.282;2023-04-26T04:23:40;93640.19;;;8.91;100.00
6464;BME280;3265;42.694;23.282;2023-04-26T04:26:07;93670.47;;;9.19;100.00
6464;BME280;3265;42.694;23.282;2023-04-26T04:28:37;93658.31;;;9.20;100.00
6464;BME280;3265;42.694;23.282;2023-04-26T04:31:04;93667.44;;;9.39;100.00
6464;BME280;3265;42.694;23.282;2023-04-26T04:33:35;93674.97;;;9.40;100.00
6464;BME280;3265;42.694;23.282;2023-04-26T04:36:02;93673.78;;;9.31;100.00
6464;BME280;3265;42.694;23.282;2023-04-26T04:38:29;93674.88;;;9.35;100.00
6464;BME280;3265;42.694;23.282;2023-04-26T04:40:56;93649.91;;;9.29;100.00
6464;BME280;3265;42.694;23.282;2023-04-26T04:43:23;93669.09;;;9.45;100.00
6464;BME280;3265;42.694;23.282;2023-04-26T04:45:50;93664.44;;;9.47;100.00
6464;BME280;3265;42.694;23.282;2023-04-26T04:48:16;93670.28;;;9.54;100.00
6464;BME280;3265;42.694;23.282;2023-04-26T04:50:46;93682.03;;;9.61;100.00
6464;BME280;3265;42.694;23.282;2023-04-26T04:53:13;93683.78;;;9.73;100.00
6464;BME280;3265;42.694;23.282;2023-04-26T04:55:40;93656.44;;;9.65;100.00
6464;BME280;3265;42.694;23.282;2023-04-26T04:58:07;93673.41;;;9.73;100.00
6464;BME280;3265;42.694;23.282;2023-04-26T05:00:34;93677.91;;;9.77;100.00
6464;BME280;3265;42.694;23.282;2023-04-26T05:03:02;93675.22;;;9.72;100.00
6464;BME280;3265;42.694;23.282;2023-04-26T05:05:29;93672.16;;;9.75;100.00
6464;BME280;3265;42.694;23.282;2023-04-26T05:07:58;93675.59;;;9.64;100.00
6464;BME280;3265;42.694;23.282;2023-04-26T05:10:25;93651.41;;;9.42;100.00
6464;BME280;3265;42.694;23.282;2023-04-26T05:12:52;93674.34;;;9.50;100.00
6464;BME280;3265;42.694;23.282;2023-04-26T05:15:19;93681.44;;;9.54;100.00
6464;BME280;3265;42.694;23.282;2023-04-26T05:17:46;93665.63;;;9.56;100.00
6464;BME280;3265;42.694;23.282;2023-04-26T05:20:13;93668.53;;;9.59;100.00
6464;BME280;3265;42.694;23.282;2023-04-26T05:22:40;93670.19;;;9.65;100.00
6464;BME280;3265;42.694;23.282;2023-04-26T05:25:09;93677.19;;;9.65;100.00
6464;BME280;3265;42.694;23.282;2023-04-26T05:27:36;93668.94;;;9.68;100.00
6464;BME280;3265;42.694;23.282;2023-04-26T05:30:03;93679.38;;;9.90;100.00
6464;BME280;3265;42.694;23.282;2023-04-26T05:32:30;93683.13;;;9.99;100.00
6464;BME280;3265;42.694;23.282;2023-04-26T05:34:57;93669.53;;;10.08;100.00
6464;BME280;3265;42.694;23.282;2023-04-26T05:37:25;93680.22;;;10.29;100.00
6464;BME280;3265;42.694;23.282;2023-04-26T05:39:52;93680.78;;;10.52;100.00
6464;BME280;3265;42.694;23.282;2023-04-26T05:42:20;93661.97;;;10.45;100.00
6464;BME280;3265;42.694;23.282;2023-04-26T05:44:46;93668.09;;;10.56;100.00
6464;BME280;3265;42.694;23.282;2023-04-26T05:47:13;93681.56;;;10.74;100.00
6464;BME280;3265;42.694;23.282;2023-04-26T05:49:40;93692.19;;;10.95;100.00
6464;BME280;3265;42.694;23.282;2023-04-26T05:52:07;93699.97;;;11.16;100.00
6464;BME280;3265;42.694;23.282;2023-04-26T05:54:34;93699.25;;;11.26;100.00
6464;BME280;3265;42.694;23.282;2023-04-26T05:57:01;93687.31;;;11.25;100.00
6464;BME280;3265;42.694;23.282;2023-04-26T05:59:29;93697.31;;;11.38;100.00
6464;BME280;3265;42.694;23.282;2023-04-26T06:01:57;93698.69;;;11.46;100.00
6464;BME280;3265;42.694;23.282;2023-04-26T06:04:24;93718.13;;;11.38;100.00
6464;BME280;3265;42.694;23.282;2023-04-26T06:06:51;93686.25;;;11.26;100.00
6464;BME280;3265;42.694;23.282;2023-04-26T06:09:18;93690.44;;;11.27;100.00
6464;BME280;3265;42.694;23.282;2023-04-26T06:11:44;93707.22;;;11.41;100.00
6464;BME280;3265;42.694;23.282;2023-04-26T06:14:12;93692.44;;;11.47;100.00
6464;BME280;3265;42.694;23.282;2023-04-26T06:16:40;93708.75;;;11.69;100.00
6464;BME280;3265;42.694;23.282;2023-04-26T06:19:07;93699.50;;;11.78;100.00
6464;BME280;3265;42.694;23.282;2023-04-26T06:21:34;93678.91;;;11.71;100.00
6464;BME280;3265;42.694;23.282;2023-04-26T06:24:01;93700.81;;;11.80;100.00
6464;BME280;3265;42.694;23.282;2023-04-26T06:26:28;93715.50;;;11.91;100.00
6464;BME280;3265;42.694;23.282;2023-04-26T06:28:55;93718.09;;;11.91;100.00
6464;BME280;3265;42.694;23.282;2023-04-26T06:31:22;93716.75;;;11.89;99.43
6464;BME280;3265;42.694;23.282;2023-04-26T06:33:50;93693.75;;;11.76;96.42
6464;BME280;3265;42.694;23.282;2023-04-26T06:36:17;93721.44;;;11.87;93.72
6464;BME280;3265;42.694;23.282;2023-04-26T06:38:44;93727.88;;;11.74;93.79
6464;BME280;3265;42.694;23.282;2023-04-26T06:41:11;93717.03;;;11.61;95.14
6464;BME280;3265;42.694;23.282;2023-04-26T06:43:41;93718.97;;;11.49;94.22
6464;BME280;3265;42.694;23.282;2023-04-26T06:46:08;93718.66;;;11.40;95.56
6464;BME280;3265;42.694;23.282;2023-04-26T06:48:34;93728.03;;;11.41;96.54
6464;BME280;3265;42.694;23.282;2023-04-26T06:51:05;93731.06;;;11.33;96.62
6464;BME280;3265;42.694;23.282;2023-04-26T06:53:33;93728.97;;;11.30;97.29
6464;BME280;3265;42.694;23.282;2023-04-26T06:55:59;93733.00;;;11.43;96.54
6464;BME280;3265;42.694;23.282;2023-04-26T06:58:26;93732.66;;;11.34;97.60
6464;BME280;3265;42.694;23.282;2023-04-26T07:00:53;93730.59;;;11.36;98.57
6464;BME280;3265;42.694;23.282;2023-04-26T07:03:20;93726.78;;;11.49;98.39
6464;BME280;3265;42.694;23.282;2023-04-26T07:05:47;93734.41;;;11.55;97.45
6464;BME280;3265;42.694;23.282;2023-04-26T07:08:15;93727.34;;;11.51;98.08
6464;BME280;3265;42.694;23.282;2023-04-26T07:10:42;93724.41;;;11.42;98.89
6464;BME280;3265;42.694;23.282;2023-04-26T07:13:09;93734.91;;;11.52;99.02
6464;BME280;3265;42.694;23.282;2023-04-26T07:15:36;93724.97;;;11.49;97.01
6464;BME280;3265;42.694;23.282;2023-04-26T07:18:03;93734.03;;;11.42;95.74
6464;BME280;3265;42.694;23.282;2023-04-26T07:20:30;93730.75;;;11.51;96.15
6464;BME280;3265;42.694;23.282;2023-04-26T07:22:56;93734.09;;;11.52;94.52
6464;BME280;3265;42.694;23.282;2023-04-26T07:25:25;93735.50;;;11.59;95.46
6464;BME280;3265;42.694;23.282;2023-04-26T07:27:52;93743.97;;;11.71;94.08
6464;BME280;3265;42.694;23.282;2023-04-26T07:30:18;93742.13;;;11.72;91.29
6464;BME280;3265;42.694;23.282;2023-04-26T07:32:45;93735.03;;;11.67;91.90
6464;BME280;3265;42.694;23.282;2023-04-26T07:35:12;93741.63;;;11.48;91.79
6464;BME280;3265;42.694;23.282;2023-04-26T07:37:41;93739.72;;;11.38;91.44
6464;BME280;3265;42.694;23.282;2023-04-26T07:40:10;93728.66;;;11.26;89.42
6464;BME280;3265;42.694;23.282;2023-04-26T07:42:39;93729.94;;;11.24;90.45
6464;BME280;3265;42.694;23.282;2023-04-26T07:45:07;93753.25;;;11.40;89.41
6464;BME280;3265;42.694;23.282;2023-04-26T07:47:34;93750.25;;;11.27;87.48
6464;BME280;3265;42.694;23.282;2023-04-26T07:50:01;93747.00;;;11.15;86.32
6464;BME280;3265;42.694;23.282;2023-04-26T07:52:28;93751.06;;;11.06;86.57
6464;BME280;3265;42.694;23.282;2023-04-26T07:54:55;93762.28;;;11.11;88.15
6464;BME280;3265;42.694;23.282;2023-04-26T07:57:22;93746.56;;;11.23;89.06
6464;BME280;3265;42.694;23.282;2023-04-26T07:59:50;93752.19;;;11.36;87.84
6464;BME280;3265;42.694;23.282;2023-04-26T08:02:17;93739.59;;;11.28;85.92
6464;BME280;3265;42.694;23.282;2023-04-26T08:04:46;93747.66;;;11.27;86.53
6464;BME280;3265;42.694;23.282;2023-04-26T08:07:14;93759.84;;;11.48;87.51
6464;BME280;3265;42.694;23.282;2023-04-26T08:09:41;93755.38;;;11.44;85.80
6464;BME280;3265;42.694;23.282;2023-04-26T08:12:09;93757.97;;;11.44;86.43
6464;BME280;3265;42.694;23.282;2023-04-26T08:14:36;93765.28;;;11.47;85.55
6464;BME280;3265;42.694;23.282;2023-04-26T08:17:06;93758.00;;;11.49;86.01
6464;BME280;3265;42.694;23.282;2023-04-26T08:19:34;93769.13;;;11.39;86.60
6464;BME280;3265;42.694;23.282;2023-04-26T08:22:01;93755.31;;;11.38;87.29
6464;BME280;3265;42.694;23.282;2023-04-26T08:24:28;93748.59;;;11.43;86.81
6464;BME280;3265;42.694;23.282;2023-04-26T08:26:55;93752.56;;;11.50;87.20
6464;BME280;3265;42.694;23.282;2023-04-26T08:29:23;93735.19;;;11.56;87.76
6464;BME280;3265;42.694;23.282;2023-04-26T08:31:53;93744.34;;;11.85;87.59
6464;BME280;3265;42.694;23.282;2023-04-26T08:34:22;93763.78;;;12.09;83.44
6464;BME280;3265;42.694;23.282;2023-04-26T08:36:49;93752.94;;;11.85;84.11
6464;BME280;3265;42.694;23.282;2023-04-26T08:39:16;93758.38;;;11.84;84.54
6464;BME280;3265;42.694;23.282;2023-04-26T08:41:44;93760.97;;;11.84;84.72
6464;BME280;3265;42.694;23.282;2023-04-26T08:44:15;93747.47;;;11.87;84.36
6464;BME280;3265;42.694;23.282;2023-04-26T08:46:47;93767.16;;;12.05;82.50
6464;BME280;3265;42.694;23.282;2023-04-26T08:49:29;93748.69;;;12.06;81.65
6464;BME280;3265;42.694;23.282;2023-04-26T08:51:59;93760.66;;;12.07;81.67
6464;BME280;3265;42.694;23.282;2023-04-26T08:54:27;93732.00;;;11.75;82.38
6464;BME280;3265;42.694;23.282;2023-04-26T08:56:54;93759.81;;;11.97;83.05
6464;BME280;3265;42.694;23.282;2023-04-26T08:59:24;93751.94;;;12.23;82.26
6464;BME280;3265;42.694;23.282;2023-04-26T09:01:52;93755.59;;;12.27;81.79
6464;BME280;3265;42.694;23.282;2023-04-26T09:04:19;93762.91;;;12.30;82.82
6464;BME280;3265;42.694;23.282;2023-04-26T09:06:49;93757.78;;;12.40;82.59
6464;BME280;3265;42.694;23.282;2023-04-26T09:09:17;93769.56;;;12.53;80.86
6464;BME280;3265;42.694;23.282;2023-04-26T09:11:52;93763.53;;;12.42;80.40
6464;BME280;3265;42.694;23.282;2023-04-26T09:14:37;93768.75;;;12.47;80.63
6464;BME280;3265;42.694;23.282;2023-04-26T09:17:25;93770.19;;;12.65;79.94
6464;BME280;3265;42.694;23.282;2023-04-26T09:19:52;93772.06;;;12.75;79.02
6464;BME280;3265;42.694;23.282;2023-04-26T09:22:32;93759.00;;;12.70;78.14
6464;BME280;3265;42.694;23.282;2023-04-26T09:24:59;93741.47;;;12.55;78.41
6464;BME280;3265;42.694;23.282;2023-04-26T09:27:34;93751.63;;;12.57;78.37
6464;BME280;3265;42.694;23.282;2023-04-26T09:30:06;93755.00;;;12.52;79.76
6464;BME280;3265;42.694;23.282;2023-04-26T09:32:48;93779.41;;;12.83;77.23
6464;BME280;3265;42.694;23.282;2023-04-26T09:35:27;93763.75;;;12.78;77.62
6464;BME280;3265;42.694;23.282;2023-04-26T09:37:56;93772.69;;;12.97;77.22
6464;BME280;3265;42.694;23.282;2023-04-26T09:40:25;93763.84;;;12.98;77.86
6464;BME280;3265;42.694;23.282;2023-04-26T09:42:58;93747.69;;;13.06;77.41
6464;BME280;3265;42.694;23.282;2023-04-26T09:45:26;93771.56;;;13.35;76.34
6464;BME280;3265;42.694;23.282;2023-04-26T09:47:53;93746.78;;;13.37;73.91
6464;BME280;3265;42.694;23.282;2023-04-26T09:50:30;93765.63;;;13.59;74.03
6464;BME280;3265;42.694;23.282;2023-04-26T09:52:58;93770.38;;;13.78;72.67
6464;BME280;3265;42.694;23.282;2023-04-26T09:55:26;93764.63;;;13.86;72.26
6464;BME280;3265;42.694;23.282;2023-04-26T09:57:54;93763.31;;;13.78;71.33
6464;BME280;3265;42.694;23.282;2023-04-26T10:00:24;93756.25;;;13.69;71.61
6464;BME280;3265;42.694;23.282;2023-04-26T10:02:52;93763.06;;;13.95;70.83
6464;BME280;3265;42.694;23.282;2023-04-26T10:05:20;93757.06;;;14.04;71.70
6464;BME280;3265;42.694;23.282;2023-04-26T10:07:48;93762.81;;;14.32;69.95
6464;BME280;3265;42.694;23.282;2023-04-26T10:10:18;93734.88;;;14.22;67.59
6464;BME280;3265;42.694;23.282;2023-04-26T10:12:46;93748.72;;;14.23;67.70
6464;BME280;3265;42.694;23.282;2023-04-26T10:15:14;93770.66;;;14.21;67.80
6464;BME280;3265;42.694;23.282;2023-04-26T10:17:41;93768.31;;;14.25;68.67
6464;BME280;3265;42.694;23.282;2023-04-26T10:20:11;93765.72;;;14.35;68.14
6464;BME280;3265;42.694;23.282;2023-04-26T10:22:43;93746.34;;;14.21;66.44
6464;BME280;3265;42.694;23.282;2023-04-26T10:25:11;93759.44;;;14.36;66.69
6464;BME280;3265;42.694;23.282;2023-04-26T10:27:49;93768.81;;;14.12;66.97
6464;BME280;3265;42.694;23.282;2023-04-26T10:30:20;93757.59;;;14.11;67.69
6464;BME280;3265;42.694;23.282;2023-04-26T10:33:14;93757.34;;;14.08;67.10
6464;BME280;3265;42.694;23.282;2023-04-26T10:36:02;93763.63;;;14.32;66.35
6464;BME280;3265;42.694;23.282;2023-04-26T10:38:29;93759.44;;;14.56;66.17
6464;BME280;3265;42.694;23.282;2023-04-26T10:41:27;93749.19;;;14.80;64.91
6464;BME280;3265;42.694;23.282;2023-04-26T10:43:57;93757.25;;;14.94;64.39
6464;BME280;3265;42.694;23.282;2023-04-26T10:46:35;93745.75;;;14.95;64.75
6464;BME280;3265;42.694;23.282;2023-04-26T10:49:13;93749.34;;;15.09;62.21
6464;BME280;3265;42.694;23.282;2023-04-26T10:51:40;93755.59;;;15.18;62.18
6464;BME280;3265;42.694;23.282;2023-04-26T10:54:07;93758.75;;;15.10;61.25
6464;BME280;3265;42.694;23.282;2023-04-26T10:56:49;93741.84;;;14.82;61.59
6464;BME280;3265;42.694;23.282;2023-04-26T10:59:20;93725.63;;;14.80;62.31
6464;BME280;3265;42.694;23.282;2023-04-26T11:01:47;93741.84;;;14.82;62.83
6464;BME280;3265;42.694;23.282;2023-04-26T11:04:14;93734.75;;;14.93;64.00
6464;BME280;3265;42.694;23.282;2023-04-26T11:06:48;93739.72;;;14.89;61.97
6464;BME280;3265;42.694;23.282;2023-04-26T11:09:49;93735.59;;;14.68;64.04
6464;BME280;3265;42.694;23.282;2023-04-26T11:12:21;93749.38;;;14.99;63.28
6464;BME280;3265;42.694;23.282;2023-04-26T11:14:59;93742.22;;;15.19;61.64
6464;BME280;3265;42.694;23.282;2023-04-26T11:17:35;93707.69;;;15.17;60.96
6464;BME280;3265;42.694;23.282;2023-04-26T11:20:06;93730.44;;;15.22;61.04
6464;BME280;3265;42.694;23.282;2023-04-26T11:22:38;93738.22;;;15.37;61.98
6464;BME280;3265;42.694;23.282;2023-04-26T11:25:06;93748.09;;;15.60;60.31
6464;BME280;3265;42.694;23.282;2023-04-26T11:27:33;93752.22;;;15.71;60.42
6464;BME280;3265;42.694;23.282;2023-04-26T11:30:03;93751.59;;;15.84;59.81
6464;BME280;3265;42.694;23.282;2023-04-26T11:32:31;93752.41;;;15.80;57.63
6464;BME280;3265;42.694;23.282;2023-04-26T11:34:59;93735.31;;;15.44;57.48
6464;BME280;3265;42.694;23.282;2023-04-26T11:37:28;93747.63;;;15.48;58.46
6464;BME280;3265;42.694;23.282;2023-04-26T11:39:56;93736.25;;;15.09;58.08
6464;BME280;3265;42.694;23.282;2023-04-26T11:42:24;93747.44;;;15.24;58.47
6464;BME280;3265;42.694;23.282;2023-04-26T11:44:52;93728.91;;;15.11;59.34
6464;BME280;3265;42.694;23.282;2023-04-26T11:47:22;93685.19;;;15.16;59.92
6464;BME280;3265;42.694;23.282;2023-04-26T11:49:50;93698.66;;;15.49;57.81
6464;BME280;3265;42.694;23.282;2023-04-26T11:52:18;93735.50;;;15.62;55.97
6464;BME280;3265;42.694;23.282;2023-04-26T11:54:45;93706.72;;;15.03;56.81
6464;BME280;3265;42.694;23.282;2023-04-26T11:57:13;93705.72;;;14.84;58.34
6464;BME280;3265;42.694;23.282;2023-04-26T11:59:42;93715.16;;;14.85;58.05
6464;BME280;3265;42.694;23.282;2023-04-26T12:02:09;93745.56;;;15.30;58.40
6464;BME280;3265;42.694;23.282;2023-04-26T12:04:38;93732.44;;;15.40;58.60
6464;BME280;3265;42.694;23.282;2023-04-26T12:07:06;93737.69;;;15.40;58.79
6464;BME280;3265;42.694;23.282;2023-04-26T12:09:34;93755.19;;;15.55;58.74
6464;BME280;3265;42.694;23.282;2023-04-26T12:12:08;93681.75;;;15.21;58.41
6464;BME280;3265;42.694;23.282;2023-04-26T12:14:41;93661.16;;;15.04;57.54
6464;BME280;3265;42.694;23.282;2023-04-26T12:17:09;93713.31;;;15.45;59.13
6464;BME280;3265;42.694;23.282;2023-04-26T12:19:48;93672.28;;;15.30;56.90
6464;BME280;3265;42.694;23.282;2023-04-26T12:22:19;93754.41;;;15.93;57.85
6464;BME280;3265;42.694;23.282;2023-04-26T12:24:48;93702.59;;;15.85;57.10
6464;BME280;3265;42.694;23.282;2023-04-26T12:27:20;93740.53;;;16.26;57.02
6464;BME280;3265;42.694;23.282;2023-04-26T12:29:47;93739.09;;;16.44;55.30
6464;BME280;3265;42.694;23.282;2023-04-26T12:32:14;93745.81;;;16.55;55.48
6464;BME280;3265;42.694;23.282;2023-04-26T12:34:50;93757.19;;;16.40;55.95
6464;BME280;3265;42.694;23.282;2023-04-26T12:37:17;93721.06;;;16.04;55.11
6464;BME280;3265;42.694;23.282;2023-04-26T12:39:44;93747.53;;;16.07;55.79
6464;BME280;3265;42.694;23.282;2023-04-26T12:42:11;93738.03;;;16.11;55.67
6464;BME280;3265;42.694;23.282;2023-04-26T12:44:38;93729.38;;;16.16;57.01
6464;BME280;3265;42.694;23.282;2023-04-26T12:47:05;93729.44;;;16.34;57.20
6464;BME280;3265;42.694;23.282;2023-04-26T12:49:32;93725.53;;;16.32;56.76
6464;BME280;3265;42.694;23.282;2023-04-26T12:52:01;93735.97;;;16.37;55.85
6464;BME280;3265;42.694;23.282;2023-04-26T12:54:28;93749.16;;;16.32;56.07
6464;BME280;3265;42.694;23.282;2023-04-26T12:56:54;93743.34;;;16.35;54.36
6464;BME280;3265;42.694;23.282;2023-04-26T12:59:24;93747.97;;;16.14;53.89
6464;BME280;3265;42.694;23.282;2023-04-26T13:01:56;93744.25;;;15.86;57.56
6464;BME280;3265;42.694;23.282;2023-04-26T13:04:23;93723.81;;;15.40;59.44
6464;BME280;3265;42.694;23.282;2023-04-26T13:06:50;93733.34;;;15.15;61.13
6464;BME280;3265;42.694;23.282;2023-04-26T13:09:18;93738.41;;;14.92;60.84
6464;BME280;3265;42.694;23.282;2023-04-26T13:11:45;93737.44;;;14.62;62.42
6464;BME280;3265;42.694;23.282;2023-04-26T13:14:15;93753.16;;;14.62;62.07
6464;BME280;3265;42.694;23.282;2023-04-26T13:16:42;93747.63;;;14.69;62.27